createdAt,value
2019-04-06T00:01:47.725Z,79.46
2019-04-06T00:04:16.842Z,79.74
2019-04-06T00:06:46.432Z,79.85
2019-04-06T00:09:17.459Z,79.99
2019-04-06T00:11:46.381Z,79.87
2019-04-06T00:14:15.688Z,79.87
2019-04-06T00:16:44.751Z,79.79
2019-04-06T00:19:13.601Z,80.10
2019-04-06T00:21:43.652Z,80.04
2019-04-06T00:24:12.597Z,80.08
2019-04-06T00:26:41.695Z,80.17
2019-04-06T00:29:14.683Z,80.21
2019-04-06T00:31:53.840Z,80.52
2019-04-06T00:34:24.724Z,80.40
2019-04-06T00:36:53.830Z,80.66
2019-04-06T00:39:23.889Z,80.63
2019-04-06T00:41:53.047Z,80.72
2019-04-06T00:44:22.033Z,80.69
2019-04-06T00:46:51.291Z,80.93
2019-04-06T00:49:20.555Z,81.00
2019-04-06T00:51:49.499Z,80.84
2019-04-06T00:54:18.592Z,80.81
2019-04-06T00:56:47.783Z,81.09
2019-04-06T00:59:16.806Z,81.01
2019-04-06T01:01:46.026Z,81.07
2019-04-06T01:04:15.218Z,81.05
2019-04-06T01:06:44.415Z,81.41
2019-04-06T01:09:13.466Z,81.50
2019-04-06T01:11:42.438Z,81.38
2019-04-06T01:14:11.613Z,81.33
2019-04-06T01:16:40.939Z,81.32
2019-04-06T01:19:10.030Z,81.13
2019-04-06T01:21:39.187Z,81.20
2019-04-06T01:24:08.081Z,81.33
2019-04-06T01:26:37.321Z,81.53
2019-04-06T01:29:06.548Z,81.40
2019-04-06T01:31:35.751Z,81.52
2019-04-06T01:34:04.922Z,81.54
2019-04-06T01:36:33.996Z,81.55
2019-04-06T01:39:03.487Z,81.52
2019-04-06T01:41:32.336Z,81.53
2019-04-06T01:44:01.534Z,81.82
2019-04-06T01:46:30.676Z,82.27
2019-04-06T01:48:59.742Z,81.89
2019-04-06T01:51:28.628Z,82.11
2019-04-06T01:53:57.831Z,81.87
2019-04-06T01:56:26.991Z,81.54
2019-04-06T01:58:56.144Z,82.00
2019-04-06T02:01:36.947Z,82.04
2019-04-06T02:04:06.166Z,81.84
2019-04-06T02:06:35.317Z,81.91
2019-04-06T02:09:06.189Z,82.07
2019-04-06T02:11:35.798Z,82.01
2019-04-06T02:14:04.709Z,81.98
2019-04-06T02:16:33.543Z,82.02
2019-04-06T02:19:02.775Z,82.15
2019-04-06T02:21:31.991Z,82.22
2019-04-06T02:24:01.077Z,82.12
2019-04-06T02:26:31.303Z,82.00
2019-04-06T02:29:00.749Z,82.08
2019-04-06T02:31:48.285Z,82.23
2019-04-06T02:34:29.131Z,81.96
2019-04-06T02:37:36.355Z,81.98
2019-04-06T02:40:31.493Z,82.17
2019-04-06T02:43:28.602Z,82.32
2019-04-06T02:45:58.205Z,82.33
2019-04-06T02:48:27.585Z,82.37
2019-04-06T02:50:56.889Z,82.17
2019-04-06T02:53:25.890Z,82.29
2019-04-06T02:55:54.858Z,82.14
2019-04-06T02:58:24.940Z,82.26
2019-04-06T03:00:54.881Z,82.25
2019-04-06T03:03:24.686Z,82.31
2019-04-06T03:05:53.907Z,82.33
2019-04-06T03:08:23.242Z,82.40
2019-04-06T03:10:52.319Z,82.29
2019-04-06T03:13:21.893Z,82.24
2019-04-06T03:15:51.971Z,82.46
2019-04-06T03:18:20.727Z,82.46
2019-04-06T03:20:50.115Z,82.64
2019-04-06T03:23:19.351Z,82.58
2019-04-06T03:25:48.394Z,82.55
2019-04-06T03:28:17.479Z,82.50
2019-04-06T03:30:47.247Z,82.77
2019-04-06T03:33:16.509Z,82.92
2019-04-06T03:35:48.465Z,82.93
2019-04-06T03:38:16.346Z,82.80
2019-04-06T03:40:45.572Z,82.60
2019-04-06T03:43:14.791Z,82.50
2019-04-06T03:45:43.725Z,82.65
2019-04-06T03:48:13.457Z,82.73
2019-04-06T03:50:42.544Z,82.74
2019-04-06T03:53:11.753Z,82.93
2019-04-06T03:55:42.592Z,82.77
2019-04-06T03:58:11.690Z,82.71
2019-04-06T04:00:40.540Z,83.26
2019-04-06T04:03:10.593Z,83.30
2019-04-06T04:05:39.872Z,83.46
2019-04-06T04:08:08.921Z,83.23
2019-04-06T04:10:39.006Z,83.18
2019-04-06T04:13:08.016Z,83.29
2019-04-06T04:15:36.870Z,83.23
2019-04-06T04:18:06.181Z,83.22
2019-04-06T04:20:35.315Z,82.98
2019-04-06T04:23:04.590Z,83.27
2019-04-06T04:25:35.635Z,83.41
2019-04-06T04:28:04.173Z,83.15
2019-04-06T04:30:35.316Z,83.18
2019-04-06T04:33:04.469Z,83.75
2019-04-06T04:35:33.645Z,83.59
2019-04-06T04:38:02.883Z,83.59
2019-04-06T04:40:32.135Z,83.48
2019-04-06T04:43:01.227Z,83.32
2019-04-06T04:45:30.563Z,83.40
2019-04-06T04:47:59.551Z,83.50
2019-04-06T04:50:28.652Z,83.27
2019-04-06T04:52:58.071Z,83.44
2019-04-06T04:55:27.036Z,83.89
2019-04-06T04:57:56.268Z,84.09
2019-04-06T05:00:25.156Z,84.04
2019-04-06T05:02:54.194Z,83.75
2019-04-06T05:05:23.241Z,83.50
2019-04-06T05:07:52.776Z,83.85
2019-04-06T05:10:22.112Z,84.94
2019-04-06T05:12:51.539Z,86.44
2019-04-06T05:15:30.400Z,86.97
2019-04-06T05:17:59.259Z,86.74
2019-04-06T05:20:28.486Z,86.45
2019-04-06T05:22:57.456Z,85.83
2019-04-06T05:25:26.688Z,85.24
2019-04-06T05:27:55.638Z,87.25
2019-04-06T05:30:24.959Z,87.14
2019-04-06T05:32:54.161Z,86.92
2019-04-06T05:35:23.912Z,86.85
2019-04-06T05:37:52.919Z,86.95
2019-04-06T05:40:21.938Z,86.72
2019-04-06T05:42:51.500Z,86.98
2019-04-06T05:45:20.891Z,87.06
2019-04-06T05:47:49.793Z,86.93
2019-04-06T05:50:18.700Z,86.61
2019-04-06T05:52:47.530Z,86.76
2019-04-06T05:55:16.707Z,86.86
2019-04-06T05:57:45.586Z,85.84
2019-04-06T06:00:14.915Z,86.30
2019-04-06T06:02:43.979Z,85.74
2019-04-06T06:05:13.004Z,86.18
2019-04-06T06:07:42.178Z,85.11
2019-04-06T06:10:11.695Z,84.58
2019-04-06T06:12:41.273Z,83.44
2019-04-06T06:15:10.363Z,83.16
2019-04-06T06:17:39.600Z,82.41
2019-04-06T06:20:09.373Z,82.47
2019-04-06T06:22:38.463Z,81.19
2019-04-06T06:25:08.564Z,80.63
2019-04-06T06:27:37.564Z,80.59
2019-04-06T06:30:08.968Z,80.91
2019-04-06T06:32:38.293Z,80.61
2019-04-06T06:35:07.219Z,81.10
2019-04-06T06:37:37.231Z,79.89
2019-04-06T06:40:06.932Z,80.23
2019-04-06T06:42:36.085Z,79.23
2019-04-06T06:45:07.675Z,78.80
2019-04-06T06:47:36.706Z,79.42
2019-04-06T06:50:06.617Z,78.17
2019-04-06T06:52:35.903Z,78.05
2019-04-06T06:55:06.291Z,77.93
2019-04-06T06:57:35.404Z,77.97
2019-04-06T07:00:04.961Z,78.38
2019-04-06T07:02:36.924Z,78.23
2019-04-06T07:05:07.397Z,78.22
2019-04-06T07:07:36.564Z,77.99
2019-04-06T07:10:06.761Z,77.68
2019-04-06T07:12:35.792Z,76.96
2019-04-06T07:15:05.879Z,76.86
2019-04-06T07:17:35.551Z,76.93
2019-04-06T07:20:05.907Z,76.58
2019-04-06T07:22:35.428Z,76.99
2019-04-06T07:25:04.729Z,76.77
2019-04-06T07:27:33.739Z,76.48
2019-04-06T07:30:03.276Z,75.66
2019-04-06T07:32:32.375Z,74.73
2019-04-06T07:35:01.408Z,74.26
2019-04-06T07:37:30.437Z,73.17
2019-04-06T07:39:59.777Z,73.29
2019-04-06T07:42:29.478Z,72.85
2019-04-06T07:44:58.672Z,74.38
2019-04-06T07:47:27.683Z,73.66
2019-04-06T07:49:57.023Z,72.58
2019-04-06T07:52:26.246Z,73.48
2019-04-06T07:54:55.309Z,70.68
2019-04-06T07:57:24.748Z,71.27
2019-04-06T07:59:53.632Z,71.52
2019-04-06T08:02:22.720Z,73.46
2019-04-06T08:04:51.962Z,72.20
2019-04-06T08:07:22.206Z,72.53
2019-04-06T08:09:51.274Z,70.03
2019-04-06T08:12:20.370Z,71.30
2019-04-06T08:14:50.176Z,71.02
2019-04-06T08:17:19.093Z,71.92
2019-04-06T08:19:48.394Z,71.77
2019-04-06T08:22:17.317Z,71.06
2019-04-06T08:24:46.322Z,71.53
2019-04-06T08:27:15.748Z,71.93
2019-04-06T08:29:45.086Z,72.40
2019-04-06T08:32:14.553Z,72.67
2019-04-06T08:34:43.755Z,72.16
2019-04-06T08:37:13.004Z,68.35
2019-04-06T08:39:42.317Z,66.94
2019-04-06T08:42:11.451Z,70.05
2019-04-06T08:44:40.656Z,65.76
2019-04-06T08:47:09.829Z,70.00
2019-04-06T08:49:46.342Z,69.42
2019-04-06T08:52:15.543Z,69.44
2019-04-06T08:54:45.118Z,68.79
2019-04-06T08:57:15.134Z,68.46
2019-04-06T08:59:53.882Z,67.37
2019-04-06T09:02:23.426Z,67.78
2019-04-06T09:04:53.079Z,66.99
2019-04-06T09:07:22.333Z,65.24
2019-04-06T09:09:51.591Z,66.37
2019-04-06T09:12:20.957Z,61.48
2019-04-06T09:14:49.921Z,67.98
2019-04-06T09:17:19.219Z,67.44
2019-04-06T09:19:48.257Z,68.79
2019-04-06T09:22:18.551Z,68.74
2019-04-06T09:24:48.151Z,69.47
2019-04-06T09:27:17.964Z,70.04
2019-04-06T09:29:47.108Z,69.68
2019-04-06T09:32:18.862Z,69.46
2019-04-06T09:34:47.817Z,68.94
2019-04-06T09:37:17.835Z,68.24
2019-04-06T09:39:47.953Z,68.12
2019-04-06T09:42:17.843Z,65.95
2019-04-06T09:45:09.408Z,65.82
2019-04-06T09:47:58.357Z,66.44
2019-04-06T09:50:52.858Z,65.28
2019-04-06T09:53:45.003Z,64.05
2019-04-06T09:56:22.220Z,64.93
2019-04-06T09:59:00.098Z,64.22
2019-04-06T10:01:54.423Z,60.26
2019-04-06T10:05:01.418Z,63.92
2019-04-06T10:07:48.079Z,64.13
2019-04-06T10:10:35.445Z,63.59
2019-04-06T10:13:13.550Z,62.73
2019-04-06T10:16:01.201Z,63.07
2019-04-06T10:18:36.335Z,63.07
2019-04-06T10:21:23.784Z,63.07
2019-04-06T10:24:01.351Z,61.58
2019-04-06T10:27:22.038Z,61.94
2019-04-06T10:30:17.203Z,61.90
2019-04-06T10:32:59.421Z,61.66
2019-04-06T10:35:52.296Z,61.42
2019-04-06T10:38:41.660Z,59.54
2019-04-06T10:41:38.698Z,59.33
2019-04-06T10:44:26.638Z,60.94
2019-04-06T10:47:23.971Z,54.19
2019-04-06T10:50:05.159Z,60.28
2019-04-06T10:52:42.304Z,58.61
2019-04-06T10:55:30.069Z,56.04
2019-04-06T10:58:20.280Z,58.18
2019-04-06T11:01:05.151Z,53.56
2019-04-06T11:03:40.181Z,56.81
2019-04-06T11:06:35.166Z,54.33
2019-04-06T11:09:23.815Z,55.20
2019-04-06T11:12:00.608Z,55.20
2019-04-06T11:14:45.548Z,54.93
2019-04-06T11:17:37.173Z,51.15
2019-04-06T11:20:24.192Z,51.15
2019-04-06T11:23:07.461Z,54.74
2019-04-06T11:26:07.820Z,50.35
2019-04-06T11:28:58.599Z,57.93
2019-04-06T11:31:45.380Z,57.93
2019-04-06T11:34:28.862Z,50.32
2019-04-06T11:37:16.050Z,57.25
2019-04-06T11:40:03.698Z,54.92
2019-04-06T11:42:50.728Z,57.11
2019-04-06T11:45:39.702Z,52.83
2019-04-06T11:49:24.775Z,52.82
2019-04-06T11:52:12.983Z,50.76
2019-04-06T11:55:07.973Z,55.06
2019-04-06T11:57:54.714Z,50.58
2019-04-06T12:00:37.415Z,55.80
2019-04-06T12:03:24.526Z,55.29
2019-04-06T12:06:01.130Z,51.23
2019-04-06T12:08:43.326Z,56.36
2019-04-06T12:11:29.140Z,54.94
2019-04-06T12:14:42.316Z,56.56
2019-04-06T12:17:33.424Z,56.55
2019-04-06T12:20:36.818Z,55.41
2019-04-06T12:23:24.631Z,57.51
2019-04-06T12:26:00.481Z,57.82
2019-04-06T12:28:47.462Z,57.40
2019-04-06T12:31:34.733Z,57.12
2019-04-06T12:34:12.663Z,56.98
2019-04-06T12:36:51.469Z,54.78
2019-04-06T12:39:27.536Z,54.69
2019-04-06T12:42:22.799Z,54.65
2019-04-06T12:45:21.930Z,54.57
2019-04-06T12:48:19.711Z,54.40
2019-04-06T12:51:00.020Z,54.31
2019-04-06T12:53:51.499Z,50.95
2019-04-06T12:56:40.331Z,54.12
2019-04-06T12:59:31.665Z,52.13
2019-04-06T13:02:18.199Z,52.77
2019-04-06T13:05:15.317Z,53.26
2019-04-06T13:08:10.038Z,52.15
2019-04-06T13:10:58.249Z,52.33
2019-04-06T13:13:47.045Z,47.04
2019-04-06T13:16:47.339Z,52.14
2019-04-06T13:19:40.780Z,49.88
2019-04-06T13:22:36.657Z,51.71
2019-04-06T13:25:39.814Z,50.54
2019-04-06T13:28:27.812Z,51.28
2019-04-06T13:31:08.523Z,50.66
2019-04-06T13:34:02.630Z,50.70
2019-04-06T13:36:54.106Z,47.93
2019-04-06T13:39:42.129Z,48.21
2019-04-06T13:42:29.185Z,50.42
2019-04-06T13:45:20.310Z,48.33
2019-04-06T13:48:07.336Z,46.13
2019-04-06T13:50:45.764Z,47.22
2019-04-06T13:53:45.116Z,49.09
2019-04-06T13:56:39.062Z,49.66
2019-04-06T13:59:39.788Z,49.28
2019-04-06T14:05:38.909Z,49.85
2019-04-06T14:08:20.695Z,48.45
2019-04-06T14:11:05.960Z,48.16
2019-04-06T14:13:57.591Z,49.19
2019-04-06T14:16:45.884Z,45.92
2019-04-06T14:19:46.449Z,49.35
2019-04-06T14:22:38.183Z,48.79
2019-04-06T14:25:26.494Z,47.89
2019-04-06T14:28:09.412Z,44.31
2019-04-06T14:30:58.309Z,48.28
2019-04-06T14:34:05.397Z,46.64
2019-04-06T14:37:05.359Z,48.10
2019-04-06T14:40:21.560Z,47.19
2019-04-06T14:43:19.210Z,46.83
2019-04-06T14:45:56.889Z,47.75
2019-04-06T14:48:36.791Z,47.49
2019-04-06T14:54:12.922Z,48.79
2019-04-06T14:56:50.725Z,48.50
2019-04-06T15:02:38.268Z,49.46
2019-04-06T15:05:38.681Z,49.65
2019-04-06T15:08:27.358Z,50.11
2019-04-06T15:11:15.354Z,50.09
2019-04-06T15:14:02.217Z,50.10
2019-04-06T15:16:51.201Z,50.54
2019-04-06T15:19:37.038Z,50.34
2019-04-06T15:22:20.827Z,49.52
2019-04-06T15:25:05.199Z,47.67
2019-04-06T15:27:56.780Z,50.06
2019-04-06T15:30:38.490Z,49.87
2019-04-06T15:33:35.304Z,50.32
2019-04-06T15:36:35.519Z,49.67
2019-04-06T15:39:25.338Z,50.22
2019-04-06T15:42:05.844Z,48.31
2019-04-06T15:44:42.861Z,50.29
2019-04-06T15:47:30.011Z,48.32
2019-04-06T15:50:22.972Z,48.13
2019-04-06T15:52:58.313Z,49.75
2019-04-06T15:55:40.580Z,50.23
2019-04-06T15:58:18.427Z,48.39
2019-04-06T16:01:12.860Z,50.12
2019-04-06T16:03:52.748Z,49.52
2019-04-06T16:06:47.166Z,50.21
2019-04-06T16:09:32.128Z,50.64
2019-04-06T16:12:13.925Z,51.02
2019-04-06T16:14:56.502Z,51.18
2019-04-06T16:17:35.254Z,51.21
2019-04-06T16:20:26.569Z,51.36
2019-04-06T16:23:06.260Z,51.90
2019-04-06T16:25:50.933Z,51.90
2019-04-06T16:28:29.010Z,51.69
2019-04-06T16:31:16.373Z,52.13
2019-04-06T16:34:11.474Z,52.13
2019-04-06T16:36:53.401Z,52.28
2019-04-06T16:39:45.788Z,52.74
2019-04-06T16:42:35.858Z,52.62
2019-04-06T16:45:23.861Z,52.63
2019-04-06T16:48:02.049Z,52.65
2019-04-06T16:50:44.522Z,53.00
2019-04-06T16:53:32.818Z,53.00
2019-04-06T16:56:25.951Z,53.32
2019-04-06T16:59:01.433Z,52.94
2019-04-06T17:01:43.280Z,53.42
2019-04-06T17:04:22.966Z,53.39
2019-04-06T17:06:59.632Z,53.52
2019-04-06T17:10:00.374Z,54.10
2019-04-06T17:12:46.663Z,54.10
2019-04-06T17:15:36.319Z,54.19
2019-04-06T17:18:23.667Z,54.75
2019-04-06T17:21:03.885Z,54.43
2019-04-06T17:23:38.575Z,54.96
2019-04-06T17:26:28.939Z,54.86
2019-04-06T17:29:11.992Z,54.87
2019-04-06T17:31:59.067Z,56.24
2019-04-06T17:34:54.420Z,55.37
2019-04-06T17:37:30.592Z,55.87
2019-04-06T17:40:23.677Z,55.56
2019-04-06T17:43:21.482Z,55.87
2019-04-06T17:46:00.717Z,56.87
2019-04-06T17:48:48.761Z,56.60
2019-04-06T17:51:37.306Z,56.11
2019-04-06T17:54:43.566Z,56.04
2019-04-06T17:57:38.145Z,56.29
2019-04-06T18:03:38.573Z,56.17
2019-04-06T18:06:18.827Z,56.24
2019-04-06T18:09:06.478Z,56.69
2019-04-06T18:11:43.247Z,57.81
2019-04-06T18:14:12.572Z,57.99
2019-04-06T18:16:42.049Z,58.29
2019-04-06T18:19:11.758Z,57.64
2019-04-06T18:21:41.050Z,57.15
2019-04-06T18:24:11.164Z,57.19
2019-04-06T18:26:40.345Z,57.62
2019-04-06T18:29:10.815Z,57.51
2019-04-06T18:32:08.628Z,59.06
2019-04-06T18:34:37.763Z,59.36
2019-04-06T18:37:29.143Z,58.25
2019-04-06T18:39:59.375Z,58.33
2019-04-06T18:42:28.609Z,58.42
2019-04-06T18:44:58.788Z,58.56
2019-04-06T18:47:30.059Z,58.78
2019-04-06T18:49:59.326Z,59.11
2019-04-06T18:52:28.444Z,58.68
2019-04-06T18:54:57.609Z,59.29
2019-04-06T18:57:26.999Z,59.61
2019-04-06T18:59:56.443Z,59.40
2019-04-06T19:02:25.879Z,59.20
2019-04-06T19:04:55.250Z,59.62
2019-04-06T19:07:24.544Z,60.30
2019-04-06T19:09:53.851Z,59.44
2019-04-06T19:12:22.932Z,60.59
2019-04-06T19:14:52.302Z,59.82
2019-04-06T19:17:21.750Z,60.95
2019-04-06T19:19:52.233Z,60.24
2019-04-06T19:22:21.555Z,62.54
2019-04-06T19:24:51.042Z,60.34
2019-04-06T19:27:20.613Z,60.39
2019-04-06T19:29:49.905Z,62.06
2019-04-06T19:32:19.690Z,60.77
2019-04-06T19:34:48.783Z,61.49
2019-04-06T19:37:18.043Z,61.14
2019-04-06T19:39:47.777Z,61.13
2019-04-06T19:42:16.775Z,61.34
2019-04-06T19:44:46.351Z,61.31
2019-04-06T19:47:15.799Z,61.29
2019-04-06T19:49:44.991Z,61.52
2019-04-06T19:52:14.202Z,61.84
2019-04-06T19:54:43.865Z,61.96
2019-04-06T19:57:13.139Z,62.31
2019-04-06T19:59:42.833Z,63.04
2019-04-06T20:02:12.170Z,63.83
2019-04-06T20:04:42.009Z,63.40
2019-04-06T20:07:11.622Z,63.38
2019-04-06T20:09:49.321Z,63.32
2019-04-06T20:12:18.434Z,65.39
2019-04-06T20:14:47.697Z,64.51
2019-04-06T20:17:17.598Z,64.75
2019-04-06T20:19:46.653Z,63.67
2019-04-06T20:22:15.596Z,63.74
2019-04-06T20:24:45.088Z,66.54
2019-04-06T20:27:15.564Z,64.23
2019-04-06T20:29:45.426Z,64.21
2019-04-06T20:32:14.738Z,64.58
2019-04-06T20:34:43.739Z,64.17
2019-04-06T20:37:13.879Z,66.85
2019-04-06T20:39:43.645Z,64.06
2019-04-06T20:42:13.360Z,64.31
2019-04-06T20:44:43.992Z,64.81
2019-04-06T20:47:12.987Z,64.46
2019-04-06T20:49:42.882Z,64.87
2019-04-06T20:52:12.517Z,64.51
2019-04-06T20:54:41.714Z,64.78
2019-04-06T20:57:11.007Z,65.36
2019-04-06T20:59:40.445Z,65.42
2019-04-06T21:02:09.457Z,68.13
2019-04-06T21:04:38.945Z,65.61
2019-04-06T21:07:08.977Z,66.68
2019-04-06T21:09:38.370Z,67.74
2019-04-06T21:12:07.793Z,66.52
2019-04-06T21:14:37.166Z,66.40
2019-04-06T21:17:07.076Z,67.68
2019-04-06T21:19:36.200Z,69.28
2019-04-06T21:22:05.806Z,66.68
2019-04-06T21:24:35.058Z,66.74
2019-04-06T21:27:04.317Z,66.84
2019-04-06T21:29:33.575Z,66.95
2019-04-06T21:32:03.443Z,66.87
2019-04-06T21:34:32.765Z,68.18
2019-04-06T21:37:02.123Z,69.53
2019-04-06T21:39:32.425Z,67.49
2019-04-06T21:42:01.623Z,68.22
2019-04-06T21:44:32.068Z,67.29
2019-04-06T21:47:02.605Z,67.45
2019-04-06T21:49:32.372Z,67.96
2019-04-06T21:52:02.311Z,70.42
2019-04-06T21:54:31.596Z,71.09
2019-04-06T21:57:00.547Z,68.01
2019-04-06T21:59:30.244Z,69.21
2019-04-06T22:01:59.503Z,69.09
2019-04-06T22:04:29.353Z,70.97
2019-04-06T22:06:58.400Z,70.72
2019-04-06T22:09:27.847Z,69.31
2019-04-06T22:11:58.405Z,68.99
2019-04-06T22:14:28.345Z,68.55
2019-04-06T22:16:58.388Z,69.14
2019-04-06T22:19:28.002Z,71.30
2019-04-06T22:21:57.179Z,69.07
2019-04-06T22:24:27.299Z,71.89
2019-04-06T22:26:57.385Z,69.39
2019-04-06T22:29:26.743Z,71.39
2019-04-06T22:31:56.029Z,70.96
2019-04-06T22:34:34.750Z,68.80
2019-04-06T22:36:56.115Z,70.15
2019-04-06T22:39:25.086Z,70.83
2019-04-06T22:41:54.895Z,69.35
2019-04-06T22:44:24.651Z,71.24
2019-04-06T22:46:54.187Z,69.86
2019-04-06T22:49:23.888Z,70.02
2019-04-06T22:51:53.145Z,70.19
2019-04-06T22:54:23.191Z,71.02
2019-04-06T22:56:54.402Z,69.70
2019-04-06T22:59:23.615Z,69.89
2019-04-06T23:01:53.486Z,69.92
2019-04-06T23:04:47.594Z,70.06
2019-04-06T23:07:14.135Z,70.00
2019-04-06T23:09:43.932Z,71.10
2019-04-06T23:12:13.607Z,70.09
2019-04-06T23:14:43.137Z,70.77
2019-04-06T23:17:12.298Z,70.91
2019-04-06T23:19:42.008Z,69.99
2019-04-06T23:22:11.507Z,71.08
2019-04-06T23:24:40.816Z,72.22
2019-04-06T23:27:10.177Z,72.25
2019-04-06T23:29:39.840Z,70.40
2019-04-06T23:32:10.204Z,71.98
2019-04-06T23:34:40.759Z,72.71
2019-04-06T23:37:09.852Z,70.51
2019-04-06T23:39:40.044Z,71.52
2019-04-06T23:42:11.161Z,71.70
2019-04-06T23:44:41.304Z,70.51
2019-04-06T23:47:11.474Z,70.38
2019-04-06T23:49:40.937Z,70.50
2019-04-06T23:52:10.441Z,71.30
2019-04-06T23:54:41.688Z,70.60
2019-04-06T23:57:10.834Z,70.77
2019-04-06T23:59:39.711Z,71.58
